sensor_id;sensor_type;location;lat;lon;timestamp;P1;durP1;ratioP1;P2;durP2;ratioP2
21804;SDS011;11064;47.102;15.452;2023-07-29T00:01:40;5.25;;;4.00;;
21804;SDS011;11064;47.102;15.452;2023-07-29T00:04:06;6.47;;;3.92;;
21804;SDS011;11064;47.102;15.452;2023-07-29T00:06:36;4.82;;;3.90;;
21804;SDS011;11064;47.102;15.452;2023-07-29T00:09:02;4.28;;;3.80;;
21804;SDS011;11064;47.102;15.452;2023-07-29T00:11:28;4.70;;;3.90;;
21804;SDS011;11064;47.102;15.452;2023-07-29T00:13:54;7.22;;;3.92;;
21804;SDS011;11064;47.102;15.452;2023-07-29T00:16:20;4.47;;;3.67;;
21804;SDS011;11064;47.102;15.452;2023-07-29T00:18:49;8.20;;;4.30;;
21804;SDS011;11064;47.102;15.452;2023-07-29T00:21:15;5.10;;;3.72;;
21804;SDS011;11064;47.102;15.452;2023-07-29T00:23:41;8.20;;;3.90;;
21804;SDS011;11064;47.102;15.452;2023-07-29T00:26:06;5.20;;;3.90;;
21804;SDS011;11064;47.102;15.452;2023-07-29T00:28:32;5.68;;;3.60;;
21804;SDS011;11064;47.102;15.452;2023-07-29T00:30:58;4.68;;;3.88;;
21804;SDS011;11064;47.102;15.452;2023-07-29T00:33:24;5.97;;;4.05;;
21804;SDS011;11064;47.102;15.452;2023-07-29T00:35:50;7.53;;;4.10;;
21804;SDS011;11064;47.102;15.452;2023-07-29T00:38:16;5.72;;;4.28;;
21804;SDS011;11064;47.102;15.452;2023-07-29T00:40:42;5.60;;;3.75;;
21804;SDS011;11064;47.102;15.452;2023-07-29T00:43:08;4.72;;;3.90;;
21804;SDS011;11064;47.102;15.452;2023-07-29T00:45:33;5.63;;;3.70;;
21804;SDS011;11064;47.102;15.452;2023-07-29T00:48:00;5.50;;;4.15;;
21804;SDS011;11064;47.102;15.452;2023-07-29T00:50:27;5.63;;;3.90;;
21804;SDS011;11064;47.102;15.452;2023-07-29T00:52:55;5.30;;;3.88;;
21804;SDS011;11064;47.102;15.452;2023-07-29T00:55:22;4.55;;;3.53;;
21804;SDS011;11064;47.102;15.452;2023-07-29T00:57:48;4.95;;;3.60;;
21804;SDS011;11064;47.102;15.452;2023-07-29T01:00:16;4.93;;;3.70;;
21804;SDS011;11064;47.102;15.452;2023-07-29T01:02:43;7.43;;;3.60;;
21804;SDS011;11064;47.102;15.452;2023-07-29T01:05:11;5.97;;;4.03;;
21804;SDS011;11064;47.102;15.452;2023-07-29T01:12:42;4.10;;;3.50;;
21804;SDS011;11064;47.102;15.452;2023-07-29T01:15:49;5.07;;;3.70;;
21804;SDS011;11064;47.102;15.452;2023-07-29T01:18:30;6.47;;;3.78;;
21804;SDS011;11064;47.102;15.452;2023-07-29T01:21:02;6.60;;;3.80;;
21804;SDS011;11064;47.102;15.452;2023-07-29T01:23:36;5.07;;;3.65;;
21804;SDS011;11064;47.102;15.452;2023-07-29T01:26:02;5.60;;;3.83;;
21804;SDS011;11064;47.102;15.452;2023-07-29T01:28:28;5.93;;;3.83;;
21804;SDS011;11064;47.102;15.452;2023-07-29T01:31:02;5.30;;;3.90;;
21804;SDS011;11064;47.102;15.452;2023-07-29T01:33:49;4.95;;;4.13;;
21804;SDS011;11064;47.102;15.452;2023-07-29T01:36:21;6.18;;;4.18;;
21804;SDS011;11064;47.102;15.452;2023-07-29T01:38:51;7.28;;;3.88;;
21804;SDS011;11064;47.102;15.452;2023-07-29T01:41:18;8.25;;;4.40;;
21804;SDS011;11064;47.102;15.452;2023-07-29T01:43:45;4.85;;;4.10;;
21804;SDS011;11064;47.102;15.452;2023-07-29T01:46:13;5.75;;;4.55;;
21804;SDS011;11064;47.102;15.452;2023-07-29T01:48:40;6.57;;;4.90;;
21804;SDS011;11064;47.102;15.452;2023-07-29T01:51:06;7.00;;;4.35;;
21804;SDS011;11064;47.102;15.452;2023-07-29T01:53:32;7.03;;;4.47;;
21804;SDS011;11064;47.102;15.452;2023-07-29T01:55:58;7.07;;;4.63;;
21804;SDS011;11064;47.102;15.452;2023-07-29T01:58:25;5.82;;;4.85;;
21804;SDS011;11064;47.102;15.452;2023-07-29T02:00:51;5.05;;;4.47;;
21804;SDS011;11064;47.102;15.452;2023-07-29T02:03:16;7.47;;;5.05;;
21804;SDS011;11064;47.102;15.452;2023-07-29T02:05:43;5.72;;;4.70;;
21804;SDS011;11064;47.102;15.452;2023-07-29T02:08:09;6.75;;;4.60;;
21804;SDS011;11064;47.102;15.452;2023-07-29T02:10:35;8.27;;;4.90;;
21804;SDS011;11064;47.102;15.452;2023-07-29T02:13:02;5.20;;;4.68;;
21804;SDS011;11064;47.102;15.452;2023-07-29T02:15:28;6.03;;;4.68;;
21804;SDS011;11064;47.102;15.452;2023-07-29T02:17:54;5.35;;;4.70;;
21804;SDS011;11064;47.102;15.452;2023-07-29T02:20:20;6.32;;;5.00;;
21804;SDS011;11064;47.102;15.452;2023-07-29T02:22:46;8.50;;;5.57;;
21804;SDS011;11064;47.102;15.452;2023-07-29T02:25:13;6.05;;;5.13;;
21804;SDS011;11064;47.102;15.452;2023-07-29T02:27:40;7.45;;;5.50;;
21804;SDS011;11064;47.102;15.452;2023-07-29T02:30:06;5.45;;;4.88;;
21804;SDS011;11064;47.102;15.452;2023-07-29T02:32:34;9.70;;;5.40;;
21804;SDS011;11064;47.102;15.452;2023-07-29T02:35:00;8.63;;;5.47;;
21804;SDS011;11064;47.102;15.452;2023-07-29T02:37:26;6.78;;;5.78;;
21804;SDS011;11064;47.102;15.452;2023-07-29T02:39:52;8.30;;;5.80;;
21804;SDS011;11064;47.102;15.452;2023-07-29T02:42:18;9.95;;;5.82;;
21804;SDS011;11064;47.102;15.452;2023-07-29T02:44:43;8.95;;;5.80;;
21804;SDS011;11064;47.102;15.452;2023-07-29T02:47:09;8.05;;;5.70;;
21804;SDS011;11064;47.102;15.452;2023-07-29T02:49:35;6.82;;;5.65;;
21804;SDS011;11064;47.102;15.452;2023-07-29T02:52:01;8.98;;;5.75;;
21804;SDS011;11064;47.102;15.452;2023-07-29T02:54:27;9.43;;;5.38;;
21804;SDS011;11064;47.102;15.452;2023-07-29T02:56:53;6.90;;;5.10;;
21804;SDS011;11064;47.102;15.452;2023-07-29T02:59:19;7.50;;;4.97;;
21804;SDS011;11064;47.102;15.452;2023-07-29T03:01:45;7.25;;;4.55;;
21804;SDS011;11064;47.102;15.452;2023-07-29T03:04:10;8.00;;;4.80;;
21804;SDS011;11064;47.102;15.452;2023-07-29T03:06:38;8.07;;;5.20;;
21804;SDS011;11064;47.102;15.452;2023-07-29T03:09:04;6.03;;;4.63;;
21804;SDS011;11064;47.102;15.452;2023-07-29T03:11:30;5.82;;;4.90;;
21804;SDS011;11064;47.102;15.452;2023-07-29T03:13:57;6.70;;;4.47;;
21804;SDS011;11064;47.102;15.452;2023-07-29T03:16:23;5.57;;;4.88;;
21804;SDS011;11064;47.102;15.452;2023-07-29T03:18:49;5.55;;;4.40;;
21804;SDS011;11064;47.102;15.452;2023-07-29T03:21:15;5.97;;;4.47;;
21804;SDS011;11064;47.102;15.452;2023-07-29T03:23:41;5.75;;;4.68;;
21804;SDS011;11064;47.102;15.452;2023-07-29T03:26:07;7.78;;;4.88;;
21804;SDS011;11064;47.102;15.452;2023-07-29T03:28:37;6.43;;;4.55;;
21804;SDS011;11064;47.102;15.452;2023-07-29T03:33:32;6.53;;;4.30;;
21804;SDS011;11064;47.102;15.452;2023-07-29T03:35:58;7.38;;;4.55;;
21804;SDS011;11064;47.102;15.452;2023-07-29T03:38:24;9.48;;;4.70;;
21804;SDS011;11064;47.102;15.452;2023-07-29T03:40:50;7.78;;;4.50;;
21804;SDS011;11064;47.102;15.452;2023-07-29T03:43:16;5.65;;;4.32;;
21804;SDS011;11064;47.102;15.452;2023-07-29T03:45:42;6.75;;;4.82;;
21804;SDS011;11064;47.102;15.452;2023-07-29T03:48:08;6.47;;;4.35;;
21804;SDS011;11064;47.102;15.452;2023-07-29T03:50:34;7.03;;;4.80;;
21804;SDS011;11064;47.102;15.452;2023-07-29T03:53:02;7.45;;;4.85;;
21804;SDS011;11064;47.102;15.452;2023-07-29T03:55:31;4.95;;;4.35;;
21804;SDS011;11064;47.102;15.452;2023-07-29T03:57:58;6.80;;;4.60;;
21804;SDS011;11064;47.102;15.452;2023-07-29T04:00:25;6.85;;;4.57;;
21804;SDS011;11064;47.102;15.452;2023-07-29T04:02:51;5.63;;;4.35;;
21804;SDS011;11064;47.102;15.452;2023-07-29T04:05:17;7.85;;;4.32;;
21804;SDS011;11064;47.102;15.452;2023-07-29T04:07:43;7.57;;;4.57;;
21804;SDS011;11064;47.102;15.452;2023-07-29T04:10:09;5.35;;;4.43;;
21804;SDS011;11064;47.102;15.452;2023-07-29T04:12:35;8.57;;;4.22;;
21804;SDS011;11064;47.102;15.452;2023-07-29T04:15:01;5.22;;;4.10;;
21804;SDS011;11064;47.102;15.452;2023-07-29T04:17:27;6.10;;;4.28;;
21804;SDS011;11064;47.102;15.452;2023-07-29T04:19:53;7.22;;;4.85;;
21804;SDS011;11064;47.102;15.452;2023-07-29T04:22:19;7.47;;;4.40;;
21804;SDS011;11064;47.102;15.452;2023-07-29T04:24:44;6.43;;;4.05;;
21804;SDS011;11064;47.102;15.452;2023-07-29T04:27:11;5.85;;;4.18;;
21804;SDS011;11064;47.102;15.452;2023-07-29T04:29:37;9.50;;;4.68;;
21804;SDS011;11064;47.102;15.452;2023-07-29T04:32:03;5.78;;;4.07;;
21804;SDS011;11064;47.102;15.452;2023-07-29T04:34:30;6.30;;;4.20;;
21804;SDS011;11064;47.102;15.452;2023-07-29T04:36:56;6.45;;;4.15;;
21804;SDS011;11064;47.102;15.452;2023-07-29T04:39:23;4.88;;;4.20;;
21804;SDS011;11064;47.102;15.452;2023-07-29T04:41:49;7.60;;;4.10;;
21804;SDS011;11064;47.102;15.452;2023-07-29T04:44:15;6.03;;;3.88;;
21804;SDS011;11064;47.102;15.452;2023-07-29T05:02:13;6.65;;;3.90;;
21804;SDS011;11064;47.102;15.452;2023-07-29T05:04:38;5.78;;;3.60;;
21804;SDS011;11064;47.102;15.452;2023-07-29T05:07:04;4.97;;;3.63;;
21804;SDS011;11064;47.102;15.452;2023-07-29T05:09:30;4.97;;;3.70;;
21804;SDS011;11064;47.102;15.452;2023-07-29T05:11:56;4.60;;;3.65;;
21804;SDS011;11064;47.102;15.452;2023-07-29T05:14:22;5.13;;;3.60;;
21804;SDS011;11064;47.102;15.452;2023-07-29T05:16:48;4.50;;;3.35;;
21804;SDS011;11064;47.102;15.452;2023-07-29T05:19:15;4.43;;;3.33;;
21804;SDS011;11064;47.102;15.452;2023-07-29T05:21:40;4.85;;;3.78;;
21804;SDS011;11064;47.102;15.452;2023-07-29T05:24:06;5.85;;;4.03;;
21804;SDS011;11064;47.102;15.452;2023-07-29T05:26:32;5.90;;;4.22;;
21804;SDS011;11064;47.102;15.452;2023-07-29T05:28:58;4.70;;;3.53;;
21804;SDS011;11064;47.102;15.452;2023-07-29T05:31:24;5.30;;;3.92;;
21804;SDS011;11064;47.102;15.452;2023-07-29T05:33:50;5.15;;;3.83;;
21804;SDS011;11064;47.102;15.452;2023-07-29T05:36:16;4.75;;;3.63;;
21804;SDS011;11064;47.102;15.452;2023-07-29T05:38:43;6.97;;;3.70;;
21804;SDS011;11064;47.102;15.452;2023-07-29T05:41:09;7.65;;;3.97;;
21804;SDS011;11064;47.102;15.452;2023-07-29T05:43:34;5.32;;;3.60;;
21804;SDS011;11064;47.102;15.452;2023-07-29T05:46:00;5.03;;;3.85;;
21804;SDS011;11064;47.102;15.452;2023-07-29T05:48:27;5.88;;;4.07;;
21804;SDS011;11064;47.102;15.452;2023-07-29T05:50:53;4.97;;;3.92;;
21804;SDS011;11064;47.102;15.452;2023-07-29T05:53:19;4.82;;;3.70;;
21804;SDS011;11064;47.102;15.452;2023-07-29T05:55:45;6.22;;;4.10;;
21804;SDS011;11064;47.102;15.452;2023-07-29T05:58:11;5.10;;;3.65;;
21804;SDS011;11064;47.102;15.452;2023-07-29T06:00:36;7.55;;;4.00;;
21804;SDS011;11064;47.102;15.452;2023-07-29T06:03:02;5.53;;;4.07;;
21804;SDS011;11064;47.102;15.452;2023-07-29T06:05:28;7.28;;;3.92;;
21804;SDS011;11064;47.102;15.452;2023-07-29T06:07:54;7.13;;;3.92;;
21804;SDS011;11064;47.102;15.452;2023-07-29T06:10:20;6.15;;;4.30;;
21804;SDS011;11064;47.102;15.452;2023-07-29T06:12:47;7.05;;;3.80;;
21804;SDS011;11064;47.102;15.452;2023-07-29T06:15:13;7.47;;;4.10;;
21804;SDS011;11064;47.102;15.452;2023-07-29T06:17:39;5.55;;;3.83;;
21804;SDS011;11064;47.102;15.452;2023-07-29T06:20:06;4.97;;;4.00;;
21804;SDS011;11064;47.102;15.452;2023-07-29T06:22:32;6.30;;;3.83;;
21804;SDS011;11064;47.102;15.452;2023-07-29T06:24:57;4.80;;;3.80;;
21804;SDS011;11064;47.102;15.452;2023-07-29T06:27:24;6.50;;;3.78;;
21804;SDS011;11064;47.102;15.452;2023-07-29T06:29:50;4.95;;;3.55;;
21804;SDS011;11064;47.102;15.452;2023-07-29T06:32:16;7.28;;;3.80;;
21804;SDS011;11064;47.102;15.452;2023-07-29T06:34:42;5.53;;;4.00;;
21804;SDS011;11064;47.102;15.452;2023-07-29T06:37:08;5.68;;;3.50;;
21804;SDS011;11064;47.102;15.452;2023-07-29T06:39:33;7.93;;;4.05;;
21804;SDS011;11064;47.102;15.452;2023-07-29T06:41:59;6.30;;;3.88;;
21804;SDS011;11064;47.102;15.452;2023-07-29T06:44:25;4.75;;;3.70;;
21804;SDS011;11064;47.102;15.452;2023-07-29T06:46:51;5.75;;;3.40;;
21804;SDS011;11064;47.102;15.452;2023-07-29T06:49:17;4.25;;;3.30;;
21804;SDS011;11064;47.102;15.452;2023-07-29T06:51:43;5.97;;;3.75;;
21804;SDS011;11064;47.102;15.452;2023-07-29T06:54:08;4.63;;;3.58;;
21804;SDS011;11064;47.102;15.452;2023-07-29T06:56:36;6.85;;;3.70;;
21804;SDS011;11064;47.102;15.452;2023-07-29T06:59:02;4.18;;;3.30;;
21804;SDS011;11064;47.102;15.452;2023-07-29T07:01:28;6.57;;;3.55;;
21804;SDS011;11064;47.102;15.452;2023-07-29T07:03:53;8.13;;;4.00;;
21804;SDS011;11064;47.102;15.452;2023-07-29T07:06:22;4.55;;;3.50;;
21804;SDS011;11064;47.102;15.452;2023-07-29T07:08:49;5.30;;;3.45;;
21804;SDS011;11064;47.102;15.452;2023-07-29T07:11:16;8.43;;;3.55;;
21804;SDS011;11064;47.102;15.452;2023-07-29T07:13:43;5.40;;;3.50;;
21804;SDS011;11064;47.102;15.452;2023-07-29T07:16:09;4.28;;;3.30;;
21804;SDS011;11064;47.102;15.452;2023-07-29T07:18:35;5.10;;;3.67;;
21804;SDS011;11064;47.102;15.452;2023-07-29T07:21:01;6.65;;;3.20;;
21804;SDS011;11064;47.102;15.452;2023-07-29T07:23:27;4.05;;;3.25;;
21804;SDS011;11064;47.102;15.452;2023-07-29T07:25:52;5.03;;;3.30;;
21804;SDS011;11064;47.102;15.452;2023-07-29T07:28:18;5.43;;;3.17;;
21804;SDS011;11064;47.102;15.452;2023-07-29T07:30:44;5.82;;;3.50;;
21804;SDS011;11064;47.102;15.452;2023-07-29T07:33:10;5.03;;;3.10;;
21804;SDS011;11064;47.102;15.452;2023-07-29T07:35:36;5.03;;;3.00;;
21804;SDS011;11064;47.102;15.452;2023-07-29T07:38:02;5.75;;;3.33;;
21804;SDS011;11064;47.102;15.452;2023-07-29T07:40:30;4.00;;;3.17;;
21804;SDS011;11064;47.102;15.452;2023-07-29T07:42:56;3.97;;;3.10;;
21804;SDS011;11064;47.102;15.452;2023-07-29T07:45:22;4.15;;;2.80;;
21804;SDS011;11064;47.102;15.452;2023-07-29T07:47:48;4.88;;;3.20;;
21804;SDS011;11064;47.102;15.452;2023-07-29T07:50:14;5.78;;;3.10;;
21804;SDS011;11064;47.102;15.452;2023-07-29T07:52:39;4.70;;;3.50;;
21804;SDS011;11064;47.102;15.452;2023-07-29T07:55:05;4.10;;;3.10;;
21804;SDS011;11064;47.102;15.452;2023-07-29T07:57:32;3.92;;;2.90;;
21804;SDS011;11064;47.102;15.452;2023-07-29T07:59:57;4.57;;;3.10;;
21804;SDS011;11064;47.102;15.452;2023-07-29T08:02:23;3.78;;;3.20;;
21804;SDS011;11064;47.102;15.452;2023-07-29T08:04:49;3.80;;;3.00;;
21804;SDS011;11064;47.102;15.452;2023-07-29T08:07:15;4.38;;;3.30;;
21804;SDS011;11064;47.102;15.452;2023-07-29T08:09:42;5.03;;;3.20;;
21804;SDS011;11064;47.102;15.452;2023-07-29T08:12:08;4.18;;;2.95;;
21804;SDS011;11064;47.102;15.452;2023-07-29T08:14:34;4.00;;;3.30;;
21804;SDS011;11064;47.102;15.452;2023-07-29T08:16:59;4.10;;;2.80;;
21804;SDS011;11064;47.102;15.452;2023-07-29T08:19:26;3.67;;;2.95;;
21804;SDS011;11064;47.102;15.452;2023-07-29T08:21:52;4.78;;;2.90;;
21804;SDS011;11064;47.102;15.452;2023-07-29T08:24:18;6.60;;;3.20;;
21804;SDS011;11064;47.102;15.452;2023-07-29T08:26:44;3.72;;;2.53;;
21804;SDS011;11064;47.102;15.452;2023-07-29T08:29:10;4.35;;;2.65;;
21804;SDS011;11064;47.102;15.452;2023-07-29T08:31:37;3.65;;;2.60;;
21804;SDS011;11064;47.102;15.452;2023-07-29T08:34:04;3.70;;;2.80;;
21804;SDS011;11064;47.102;15.452;2023-07-29T08:36:32;3.75;;;2.80;;
21804;SDS011;11064;47.102;15.452;2023-07-29T08:38:57;5.70;;;2.65;;
21804;SDS011;11064;47.102;15.452;2023-07-29T08:41:31;4.10;;;2.70;;
21804;SDS011;11064;47.102;15.452;2023-07-29T08:44:09;4.63;;;2.75;;
21804;SDS011;11064;47.102;15.452;2023-07-29T08:47:02;3.38;;;2.40;;
21804;SDS011;11064;47.102;15.452;2023-07-29T08:49:28;4.13;;;2.63;;
21804;SDS011;11064;47.102;15.452;2023-07-29T08:51:55;4.72;;;2.78;;
21804;SDS011;11064;47.102;15.452;2023-07-29T08:54:22;4.68;;;3.05;;
21804;SDS011;11064;47.102;15.452;2023-07-29T08:56:48;5.13;;;3.13;;
21804;SDS011;11064;47.102;15.452;2023-07-29T08:59:15;4.65;;;2.58;;
21804;SDS011;11064;47.102;15.452;2023-07-29T09:01:42;3.50;;;2.90;;
21804;SDS011;11064;47.102;15.452;2023-07-29T09:04:08;3.28;;;2.83;;
21804;SDS011;11064;47.102;15.452;2023-07-29T09:06:35;3.55;;;2.90;;
21804;SDS011;11064;47.102;15.452;2023-07-29T09:09:03;4.05;;;2.83;;
21804;SDS011;11064;47.102;15.452;2023-07-29T09:11:30;3.45;;;2.70;;
21804;SDS011;11064;47.102;15.452;2023-07-29T09:13:57;4.75;;;2.90;;
21804;SDS011;11064;47.102;15.452;2023-07-29T09:16:24;4.65;;;2.70;;
21804;SDS011;11064;47.102;15.452;2023-07-29T09:18:50;4.72;;;2.72;;
21804;SDS011;11064;47.102;15.452;2023-07-29T09:21:17;2.90;;;2.60;;
21804;SDS011;11064;47.102;15.452;2023-07-29T09:23:48;3.67;;;2.40;;
21804;SDS011;11064;47.102;15.452;2023-07-29T09:26:22;4.78;;;2.55;;
21804;SDS011;11064;47.102;15.452;2023-07-29T09:28:51;2.90;;;2.30;;
21804;SDS011;11064;47.102;15.452;2023-07-29T09:31:19;3.17;;;2.43;;
21804;SDS011;11064;47.102;15.452;2023-07-29T09:33:46;4.60;;;2.50;;
21804;SDS011;11064;47.102;15.452;2023-07-29T09:36:12;6.90;;;2.55;;
21804;SDS011;11064;47.102;15.452;2023-07-29T09:38:38;4.03;;;2.35;;
21804;SDS011;11064;47.102;15.452;2023-07-29T09:41:04;4.60;;;2.45;;
21804;SDS011;11064;47.102;15.452;2023-07-29T09:43:34;2.63;;;2.28;;
21804;SDS011;11064;47.102;15.452;2023-07-29T09:46:00;2.75;;;2.17;;
21804;SDS011;11064;47.102;15.452;2023-07-29T09:48:27;3.58;;;2.22;;
21804;SDS011;11064;47.102;15.452;2023-07-29T09:50:56;2.50;;;2.20;;
21804;SDS011;11064;47.102;15.452;2023-07-29T09:53:21;2.88;;;2.20;;
21804;SDS011;11064;47.102;15.452;2023-07-29T09:55:48;4.57;;;2.10;;
21804;SDS011;11064;47.102;15.452;2023-07-29T09:58:19;2.55;;;2.30;;
21804;SDS011;11064;47.102;15.452;2023-07-29T10:00:52;3.10;;;2.22;;
21804;SDS011;11064;47.102;15.452;2023-07-29T10:03:18;2.78;;;2.20;;
21804;SDS011;11064;47.102;15.452;2023-07-29T10:05:46;2.28;;;2.08;;
21804;SDS011;11064;47.102;15.452;2023-07-29T10:08:12;4.13;;;2.20;;
21804;SDS011;11064;47.102;15.452;2023-07-29T10:10:41;3.55;;;2.50;;
21804;SDS011;11064;47.102;15.452;2023-07-29T10:13:07;3.38;;;2.30;;
21804;SDS011;11064;47.102;15.452;2023-07-29T10:15:34;3.22;;;2.35;;
21804;SDS011;11064;47.102;15.452;2023-07-29T10:18:01;2.92;;;2.20;;
21804;SDS011;11064;47.102;15.452;2023-07-29T10:20:29;2.95;;;2.38;;
21804;SDS011;11064;47.102;15.452;2023-07-29T10:22:59;3.42;;;2.50;;
21804;SDS011;11064;47.102;15.452;2023-07-29T10:25:33;3.08;;;2.38;;
21804;SDS011;11064;47.102;15.452;2023-07-29T10:28:07;3.10;;;2.10;;
21804;SDS011;11064;47.102;15.452;2023-07-29T10:30:37;2.70;;;2.50;;
21804;SDS011;11064;47.102;15.452;2023-07-29T10:33:04;4.10;;;2.60;;
21804;SDS011;11064;47.102;15.452;2023-07-29T10:35:34;2.72;;;2.22;;
21804;SDS011;11064;47.102;15.452;2023-07-29T10:38:02;5.30;;;2.22;;
21804;SDS011;11064;47.102;15.452;2023-07-29T10:40:50;2.55;;;2.25;;
21804;SDS011;11064;47.102;15.452;2023-07-29T10:43:26;2.50;;;2.30;;
21804;SDS011;11064;47.102;15.452;2023-07-29T10:45:55;5.43;;;2.63;;
21804;SDS011;11064;47.102;15.452;2023-07-29T10:51:42;3.08;;;2.30;;
21804;SDS011;11064;47.102;15.452;2023-07-29T10:54:18;2.90;;;2.22;;
21804;SDS011;11064;47.102;15.452;2023-07-29T10:56:47;4.68;;;2.60;;
21804;SDS011;11064;47.102;15.452;2023-07-29T11:01:45;3.13;;;2.30;;
21804;SDS011;11064;47.102;15.452;2023-07-29T11:04:26;4.10;;;2.20;;
21804;SDS011;11064;47.102;15.452;2023-07-29T11:15:26;2.97;;;2.58;;
21804;SDS011;11064;47.102;15.452;2023-07-29T11:17:58;8.35;;;2.72;;
21804;SDS011;11064;47.102;15.452;2023-07-29T11:20:26;3.15;;;2.10;;
21804;SDS011;11064;47.102;15.452;2023-07-29T11:22:59;2.22;;;2.03;;
21804;SDS011;11064;47.102;15.452;2023-07-29T11:25:27;2.95;;;2.00;;
21804;SDS011;11064;47.102;15.452;2023-07-29T11:27:56;2.97;;;2.30;;
21804;SDS011;11064;47.102;15.452;2023-07-29T11:30:23;2.38;;;2.00;;
21804;SDS011;11064;47.102;15.452;2023-07-29T11:32:52;2.20;;;2.00;;
21804;SDS011;11064;47.102;15.452;2023-07-29T11:35:19;2.20;;;1.85;;
21804;SDS011;11064;47.102;15.452;2023-07-29T11:37:46;3.08;;;2.00;;
21804;SDS011;11064;47.102;15.452;2023-07-29T11:40:19;2.10;;;1.90;;
21804;SDS011;11064;47.102;15.452;2023-07-29T11:42:46;2.30;;;1.90;;
21804;SDS011;11064;47.102;15.452;2023-07-29T11:45:15;2.20;;;1.88;;
21804;SDS011;11064;47.102;15.452;2023-07-29T11:47:42;3.22;;;1.85;;
21804;SDS011;11064;47.102;15.452;2023-07-29T11:50:08;2.75;;;1.92;;
21804;SDS011;11064;47.102;15.452;2023-07-29T11:52:36;2.03;;;1.83;;
21804;SDS011;11064;47.102;15.452;2023-07-29T11:55:05;2.08;;;1.80;;
21804;SDS011;11064;47.102;15.452;2023-07-29T11:57:32;1.88;;;1.70;;
21804;SDS011;11064;47.102;15.452;2023-07-29T12:00:03;2.30;;;1.80;;
21804;SDS011;11064;47.102;15.452;2023-07-29T12:02:37;2.58;;;2.17;;
21804;SDS011;11064;47.102;15.452;2023-07-29T12:05:05;1.90;;;1.73;;
21804;SDS011;11064;47.102;15.452;2023-07-29T12:07:33;4.53;;;2.00;;
21804;SDS011;11064;47.102;15.452;2023-07-29T12:09:59;2.42;;;1.98;;
21804;SDS011;11064;47.102;15.452;2023-07-29T12:12:28;3.78;;;1.90;;
21804;SDS011;11064;47.102;15.452;2023-07-29T12:14:54;1.92;;;1.77;;
21804;SDS011;11064;47.102;15.452;2023-07-29T12:17:20;3.33;;;2.20;;
21804;SDS011;11064;47.102;15.452;2023-07-29T12:19:46;3.35;;;2.08;;
21804;SDS011;11064;47.102;15.452;2023-07-29T12:22:17;2.42;;;1.80;;
21804;SDS011;11064;47.102;15.452;2023-07-29T12:24:44;2.20;;;1.95;;
21804;SDS011;11064;47.102;15.452;2023-07-29T12:27:10;3.83;;;1.92;;
21804;SDS011;11064;47.102;15.452;2023-07-29T12:29:41;3.28;;;1.90;;
21804;SDS011;11064;47.102;15.452;2023-07-29T12:32:08;2.97;;;1.90;;
21804;SDS011;11064;47.102;15.452;2023-07-29T12:34:35;2.00;;;1.80;;
21804;SDS011;11064;47.102;15.452;2023-07-29T12:37:04;2.75;;;2.00;;
21804;SDS011;11064;47.102;15.452;2023-07-29T12:39:32;1.92;;;1.65;;
21804;SDS011;11064;47.102;15.452;2023-07-29T12:42:00;4.68;;;1.90;;
21804;SDS011;11064;47.102;15.452;2023-07-29T12:44:33;2.10;;;1.90;;
21804;SDS011;11064;47.102;15.452;2023-07-29T12:47:01;2.70;;;2.00;;
21804;SDS011;11064;47.102;15.452;2023-07-29T12:49:28;4.28;;;1.95;;
21804;SDS011;11064;47.102;15.452;2023-07-29T12:51:55;2.28;;;1.92;;
21804;SDS011;11064;47.102;15.452;2023-07-29T12:54:23;3.63;;;1.80;;
21804;SDS011;11064;47.102;15.452;2023-07-29T12:56:49;2.50;;;2.10;;
21804;SDS011;11064;47.102;15.452;2023-07-29T12:59:15;3.55;;;2.15;;
21804;SDS011;11064;47.102;15.452;2023-07-29T13:01:41;3.03;;;2.00;;
21804;SDS011;11064;47.102;15.452;2023-07-29T13:04:07;3.03;;;2.20;;
21804;SDS011;11064;47.102;15.452;2023-07-29T13:06:34;4.15;;;2.45;;
21804;SDS011;11064;47.102;15.452;2023-07-29T13:09:00;2.40;;;2.20;;
21804;SDS011;11064;47.102;15.452;2023-07-29T13:11:26;5.07;;;2.40;;
21804;SDS011;11064;47.102;15.452;2023-07-29T13:13:51;6.75;;;2.30;;
21804;SDS011;11064;47.102;15.452;2023-07-29T13:16:17;5.68;;;2.63;;
21804;SDS011;11064;47.102;15.452;2023-07-29T13:18:43;6.20;;;2.70;;
21804;SDS011;11064;47.102;15.452;2023-07-29T13:21:10;3.05;;;2.33;;
21804;SDS011;11064;47.102;15.452;2023-07-29T13:23:35;4.25;;;2.28;;
21804;SDS011;11064;47.102;15.452;2023-07-29T13:26:01;2.83;;;2.10;;
21804;SDS011;11064;47.102;15.452;2023-07-29T13:28:27;2.42;;;2.05;;
21804;SDS011;11064;47.102;15.452;2023-07-29T13:30:53;2.60;;;2.15;;
21804;SDS011;11064;47.102;15.452;2023-07-29T13:33:19;2.13;;;1.92;;
21804;SDS011;11064;47.102;15.452;2023-07-29T13:35:45;2.10;;;1.90;;
21804;SDS011;11064;47.102;15.452;2023-07-29T13:38:11;3.30;;;2.10;;
21804;SDS011;11064;47.102;15.452;2023-07-29T13:40:36;2.38;;;2.08;;
21804;SDS011;11064;47.102;15.452;2023-07-29T13:43:02;2.47;;;2.10;;
21804;SDS011;11064;47.102;15.452;2023-07-29T13:45:28;2.20;;;2.00;;
21804;SDS011;11064;47.102;15.452;2023-07-29T13:47:54;2.70;;;2.08;;
21804;SDS011;11064;47.102;15.452;2023-07-29T13:50:20;4.82;;;2.28;;
21804;SDS011;11064;47.102;15.452;2023-07-29T13:52:46;3.03;;;2.17;;
21804;SDS011;11064;47.102;15.452;2023-07-29T13:55:12;2.72;;;2.33;;
21804;SDS011;11064;47.102;15.452;2023-07-29T13:57:38;2.45;;;2.25;;
21804;SDS011;11064;47.102;15.452;2023-07-29T14:00:05;2.50;;;2.15;;
21804;SDS011;11064;47.102;15.452;2023-07-29T14:02:32;3.75;;;1.90;;
21804;SDS011;11064;47.102;15.452;2023-07-29T14:04:58;2.42;;;2.22;;
21804;SDS011;11064;47.102;15.452;2023-07-29T14:07:24;3.15;;;2.10;;
21804;SDS011;11064;47.102;15.452;2023-07-29T14:09:49;3.35;;;1.98;;
21804;SDS011;11064;47.102;15.452;2023-07-29T14:12:15;2.40;;;2.00;;
21804;SDS011;11064;47.102;15.452;2023-07-29T14:14:41;2.42;;;2.22;;
21804;SDS011;11064;47.102;15.452;2023-07-29T14:17:07;4.00;;;2.33;;
21804;SDS011;11064;47.102;15.452;2023-07-29T14:19:35;2.95;;;2.42;;
21804;SDS011;11064;47.102;15.452;2023-07-29T14:22:01;3.28;;;2.20;;
21804;SDS011;11064;47.102;15.452;2023-07-29T14:24:27;3.10;;;2.63;;
21804;SDS011;11064;47.102;15.452;2023-07-29T14:26:52;2.63;;;2.42;;
21804;SDS011;11064;47.102;15.452;2023-07-29T14:29:18;2.70;;;2.25;;
21804;SDS011;11064;47.102;15.452;2023-07-29T14:31:44;2.90;;;2.50;;
21804;SDS011;11064;47.102;15.452;2023-07-29T14:34:10;3.55;;;2.38;;
21804;SDS011;11064;47.102;15.452;2023-07-29T14:36:36;3.85;;;2.47;;
21804;SDS011;11064;47.102;15.452;2023-07-29T14:39:02;3.08;;;2.40;;
21804;SDS011;11064;47.102;15.452;2023-07-29T14:41:29;2.83;;;2.33;;
21804;SDS011;11064;47.102;15.452;2023-07-29T14:43:55;4.00;;;2.35;;
21804;SDS011;11064;47.102;15.452;2023-07-29T14:46:22;2.72;;;2.45;;
21804;SDS011;11064;47.102;15.452;2023-07-29T14:48:48;2.35;;;2.00;;
21804;SDS011;11064;47.102;15.452;2023-07-29T14:51:14;3.03;;;2.00;;
21804;SDS011;11064;47.102;15.452;2023-07-29T14:53:39;3.35;;;2.33;;
21804;SDS011;11064;47.102;15.452;2023-07-29T14:56:05;2.58;;;2.30;;
21804;SDS011;11064;47.102;15.452;2023-07-29T14:58:31;2.35;;;2.13;;
21804;SDS011;11064;47.102;15.452;2023-07-29T15:00:57;3.67;;;2.40;;
21804;SDS011;11064;47.102;15.452;2023-07-29T15:03:23;2.53;;;2.28;;
21804;SDS011;11064;47.102;15.452;2023-07-29T15:05:50;4.95;;;2.42;;
21804;SDS011;11064;47.102;15.452;2023-07-29T15:08:16;2.47;;;2.10;;
21804;SDS011;11064;47.102;15.452;2023-07-29T15:10:46;2.70;;;2.00;;